createdAt,value
2023-04-27T00:01:17.379Z,9.20
2023-04-27T00:03:45.942Z,12.43
2023-04-27T00:06:14.346Z,9.13
2023-04-27T00:08:41.665Z,10.02
2023-04-27T00:11:10.957Z,8.20
2023-04-27T00:13:37.595Z,8.82
2023-04-27T00:16:08.994Z,10.02
2023-04-27T00:18:38.020Z,6.60
2023-04-27T00:21:07.027Z,8.82
2023-04-27T00:23:34.215Z,10.38
2023-04-27T00:26:00.866Z,13.70
2023-04-27T00:28:27.546Z,6.75
2023-04-27T00:30:54.247Z,9.38
2023-04-27T00:33:21.265Z,8.50
2023-04-27T00:35:48.072Z,9.05
2023-04-27T00:38:14.809Z,11.02
2023-04-27T00:40:41.605Z,9.60
2023-04-27T00:43:08.271Z,6.20
2023-04-27T00:45:42.978Z,8.50
2023-04-27T00:48:11.363Z,9.85
2023-04-27T00:50:38.308Z,10.18
2023-04-27T00:53:06.049Z,7.40
2023-04-27T00:55:32.762Z,9.77
2023-04-27T00:58:00.531Z,6.97
2023-04-27T01:00:28.747Z,7.82
2023-04-27T01:02:56.182Z,10.73
2023-04-27T01:05:27.055Z,9.73
2023-04-27T01:07:57.548Z,7.43
2023-04-27T01:10:27.889Z,8.20
2023-04-27T01:12:56.755Z,7.47
2023-04-27T01:15:23.585Z,9.20
2023-04-27T01:17:58.547Z,8.65
2023-04-27T01:20:25.601Z,13.50
2023-04-27T01:22:53.591Z,8.05
2023-04-27T01:25:20.387Z,11.38
2023-04-27T01:27:47.129Z,14.20
2023-04-27T01:30:13.976Z,10.00
2023-04-27T01:32:40.693Z,8.15
2023-04-27T01:35:07.845Z,11.93
2023-04-27T01:37:35.340Z,13.18
2023-04-27T01:40:02.141Z,8.70
2023-04-27T01:42:29.032Z,11.68
2023-04-27T01:44:55.657Z,6.97
2023-04-27T01:47:22.286Z,11.15
2023-04-27T01:49:50.507Z,10.15
2023-04-27T01:52:18.754Z,10.48
2023-04-27T01:54:47.917Z,9.10
2023-04-27T01:57:18.284Z,8.60
2023-04-27T01:59:45.393Z,10.43
2023-04-27T02:02:12.063Z,11.40
2023-04-27T02:04:39.191Z,10.65
2023-04-27T02:07:06.027Z,12.55
2023-04-27T02:09:32.704Z,10.50
2023-04-27T02:11:59.366Z,10.90
2023-04-27T02:14:26.083Z,11.23
2023-04-27T02:16:52.817Z,8.05
2023-04-27T02:19:19.548Z,9.13
2023-04-27T02:21:46.233Z,10.98
2023-04-27T02:24:12.880Z,10.93
2023-04-27T02:26:39.617Z,9.45
2023-04-27T02:29:06.313Z,14.02
2023-04-27T02:31:33.793Z,15.82
2023-04-27T02:34:01.742Z,8.63
2023-04-27T02:36:28.431Z,12.77
2023-04-27T02:38:56.829Z,8.55
2023-04-27T02:41:30.031Z,14.07
2023-04-27T02:43:56.714Z,10.80
2023-04-27T02:46:23.741Z,12.88
2023-04-27T02:48:50.454Z,10.10
2023-04-27T02:51:17.090Z,8.02
2023-04-27T02:53:43.801Z,14.18
2023-04-27T02:56:10.500Z,10.60
2023-04-27T02:58:37.277Z,11.23
2023-04-27T03:01:04.354Z,11.90
2023-04-27T03:03:31.284Z,11.18
2023-04-27T03:05:58.076Z,13.48
2023-04-27T03:08:24.807Z,10.85
2023-04-27T03:10:51.506Z,10.60
2023-04-27T03:13:20.245Z,8.95
2023-04-27T03:15:49.294Z,13.00
2023-04-27T03:18:20.208Z,12.25
2023-04-27T03:20:47.004Z,12.10
2023-04-27T03:23:13.662Z,15.52
2023-04-27T03:25:40.378Z,7.68
2023-04-27T03:28:07.105Z,10.02
2023-04-27T03:30:33.806Z,9.65
2023-04-27T03:33:00.588Z,10.43
2023-04-27T03:35:27.310Z,11.48
2023-04-27T03:37:53.955Z,9.20
2023-04-27T03:40:20.694Z,13.55
2023-04-27T03:42:48.382Z,17.33
2023-04-27T03:45:16.430Z,11.38
2023-04-27T03:47:43.703Z,14.38
2023-04-27T03:50:11.830Z,8.85
2023-04-27T03:52:38.474Z,11.57
2023-04-27T03:55:06.921Z,11.45
2023-04-27T03:57:37.244Z,10.13
2023-04-27T04:00:06.404Z,8.98
2023-04-27T04:02:34.421Z,11.25
2023-04-27T04:05:01.300Z,9.18
2023-04-27T04:07:28.114Z,7.88
2023-04-27T04:09:54.961Z,8.20
2023-04-27T04:12:21.637Z,8.90
2023-04-27T04:14:48.306Z,8.93
2023-04-27T04:17:15.212Z,7.88
2023-04-27T04:19:41.920Z,12.43
2023-04-27T04:22:08.695Z,11.65
2023-04-27T04:24:35.398Z,10.95
2023-04-27T04:27:02.284Z,12.80
2023-04-27T04:29:28.991Z,10.95
2023-04-27T04:31:56.080Z,13.50
2023-04-27T04:34:23.355Z,10.57
2023-04-27T04:36:51.022Z,9.02
2023-04-27T04:39:19.763Z,13.43
2023-04-27T04:41:46.774Z,8.63
2023-04-27T04:44:13.474Z,8.50
2023-04-27T04:46:40.210Z,12.65
2023-04-27T04:49:06.950Z,13.95
2023-04-27T04:51:33.798Z,12.27
2023-04-27T04:54:01.950Z,14.90
2023-04-27T04:56:28.976Z,14.68
2023-04-27T04:58:55.702Z,12.93
2023-04-27T05:01:24.637Z,9.40
2023-04-27T05:03:51.528Z,11.50
2023-04-27T05:06:19.844Z,12.90
2023-04-27T05:08:46.836Z,13.35
2023-04-27T05:11:14.625Z,11.98
2023-04-27T05:13:42.793Z,14.00
2023-04-27T05:16:10.849Z,11.77
2023-04-27T05:18:38.956Z,11.07
2023-04-27T05:21:05.729Z,10.38
2023-04-27T05:23:32.474Z,12.88
2023-04-27T05:25:59.194Z,13.18
2023-04-27T05:28:25.978Z,13.57
2023-04-27T05:30:52.699Z,11.55
2023-04-27T05:33:20.921Z,13.02
2023-04-27T05:35:49.246Z,16.05
2023-04-27T05:38:15.988Z,12.50
2023-04-27T05:40:44.111Z,12.68
2023-04-27T05:43:12.285Z,16.95
2023-04-27T05:45:40.153Z,15.35
2023-04-27T05:48:07.254Z,13.60
2023-04-27T05:50:34.023Z,15.35
2023-04-27T05:53:00.834Z,12.07
2023-04-27T05:55:27.657Z,16.70
2023-04-27T05:58:04.596Z,11.35
2023-04-27T06:00:34.836Z,15.45
2023-04-27T06:03:02.072Z,13.13
2023-04-27T06:05:29.081Z,22.08
2023-04-27T06:07:55.887Z,18.13
2023-04-27T06:10:22.911Z,13.23
2023-04-27T06:12:49.797Z,17.88
2023-04-27T06:15:17.902Z,11.77
2023-04-27T06:17:44.679Z,14.57
2023-04-27T06:20:12.022Z,15.85
2023-04-27T06:22:39.952Z,12.30
2023-04-27T06:25:07.437Z,10.43
2023-04-27T06:27:35.547Z,11.68
2023-04-27T06:30:02.261Z,8.20
2023-04-27T06:32:29.589Z,9.48
2023-04-27T06:34:56.389Z,9.77
2023-04-27T06:37:23.075Z,12.68
2023-04-27T06:39:49.888Z,9.95
2023-04-27T06:42:16.673Z,15.18
2023-04-27T06:44:43.659Z,12.70
2023-04-27T06:47:10.442Z,7.07
2023-04-27T06:49:38.846Z,15.43
2023-04-27T06:52:05.592Z,9.85
2023-04-27T06:54:33.361Z,9.68
2023-04-27T06:57:00.072Z,8.48
2023-04-27T06:59:27.824Z,15.00
2023-04-27T07:01:55.669Z,10.15
2023-04-27T07:04:22.941Z,12.85
2023-04-27T07:06:50.053Z,11.38
2023-04-27T07:09:26.926Z,7.85
2023-04-27T07:11:54.335Z,8.45
2023-04-27T07:14:21.074Z,7.43
2023-04-27T07:16:47.834Z,9.77
2023-04-27T07:19:14.738Z,7.30
2023-04-27T07:21:41.800Z,10.80
2023-04-27T07:24:08.631Z,12.20
2023-04-27T07:26:35.352Z,8.52
2023-04-27T07:29:08.283Z,11.70
2023-04-27T07:31:41.503Z,10.10
2023-04-27T07:34:08.513Z,8.68
2023-04-27T07:36:35.242Z,9.45
2023-04-27T07:39:01.931Z,11.48
2023-04-27T07:41:28.947Z,13.40
2023-04-27T07:43:56.956Z,10.25
2023-04-27T07:46:25.799Z,9.52
2023-04-27T07:48:52.567Z,7.03
2023-04-27T07:51:19.263Z,12.15
2023-04-27T07:53:47.701Z,9.63
2023-04-27T07:56:14.584Z,10.15
2023-04-27T07:58:41.318Z,36.30
2023-04-27T08:01:08.082Z,12.30
2023-04-27T08:03:35.211Z,8.18
2023-04-27T08:06:02.405Z,7.90
2023-04-27T08:08:29.327Z,10.73
2023-04-27T08:10:56.057Z,7.50
2023-04-27T08:13:23.743Z,8.13
2023-04-27T08:15:52.504Z,10.85
2023-04-27T08:18:19.196Z,11.40
2023-04-27T08:20:47.464Z,8.93
2023-04-27T08:23:14.279Z,7.63
2023-04-27T08:25:50.728Z,7.22
2023-04-27T08:28:18.980Z,10.95
2023-04-27T08:30:48.977Z,6.50
2023-04-27T08:33:16.025Z,9.73
2023-04-27T08:35:43.111Z,8.15
2023-04-27T08:38:09.885Z,8.25
2023-04-27T08:40:36.607Z,8.35
2023-04-27T08:43:03.384Z,13.50
2023-04-27T08:45:30.129Z,19.77
2023-04-27T08:47:56.987Z,9.25
2023-04-27T08:50:26.094Z,10.13
2023-04-27T08:52:53.051Z,8.30
2023-04-27T08:55:20.217Z,10.27
2023-04-27T08:57:57.853Z,9.55
2023-04-27T09:00:38.195Z,8.18
2023-04-27T09:03:05.031Z,12.20
2023-04-27T09:05:31.866Z,9.70
2023-04-27T09:08:02.720Z,9.50
2023-04-27T09:10:29.713Z,9.43
2023-04-27T09:13:00.922Z,9.55
2023-04-27T09:15:28.342Z,9.50
2023-04-27T09:17:58.586Z,7.32
2023-04-27T09:20:25.486Z,8.38
2023-04-27T09:22:53.317Z,9.32
2023-04-27T09:25:33.218Z,6.38
2023-04-27T09:28:01.357Z,7.13
2023-04-27T09:30:29.617Z,11.70
2023-04-27T09:33:01.443Z,7.95
2023-04-27T09:35:31.105Z,7.38
2023-04-27T09:38:05.022Z,7.38
2023-04-27T09:40:31.820Z,7.82
2023-04-27T09:43:00.344Z,9.65
2023-04-27T09:45:27.703Z,7.32
2023-04-27T09:47:54.552Z,10.63
2023-04-27T09:50:21.421Z,9.10
2023-04-27T09:52:48.910Z,13.60
2023-04-27T09:55:24.430Z,15.20
2023-04-27T09:58:16.050Z,9.43
2023-04-27T10:01:00.576Z,7.88
2023-04-27T10:04:02.493Z,7.95
2023-04-27T10:07:00.690Z,11.27
2023-04-27T10:09:39.970Z,6.85
2023-04-27T10:12:42.264Z,4.72
2023-04-27T10:15:16.728Z,7.18
2023-04-27T10:17:53.299Z,10.18
2023-04-27T10:20:37.694Z,5.45
2023-04-27T10:23:04.701Z,7.15
2023-04-27T10:25:44.277Z,9.10
2023-04-27T10:28:16.980Z,4.70
2023-04-27T10:30:49.803Z,7.40
2023-04-27T10:33:26.285Z,9.55
2023-04-27T10:35:59.152Z,4.63
2023-04-27T10:38:33.320Z,6.03
2023-04-27T10:41:10.560Z,4.57
2023-04-27T10:43:40.072Z,6.22
2023-04-27T10:46:12.498Z,8.23
2023-04-27T10:48:44.659Z,8.07
2023-04-27T10:51:16.232Z,5.75
2023-04-27T10:53:44.420Z,6.55
2023-04-27T10:56:11.149Z,4.90
2023-04-27T10:58:49.050Z,4.75
2023-04-27T11:01:26.532Z,6.53
2023-04-27T11:04:00.491Z,5.15
2023-04-27T11:06:28.632Z,8.85
2023-04-27T11:08:55.363Z,6.45
2023-04-27T11:11:22.141Z,5.32
2023-04-27T11:13:50.418Z,6.40
2023-04-27T11:16:18.773Z,3.72
2023-04-27T11:18:48.169Z,5.28
2023-04-27T11:21:19.320Z,3.72
2023-04-27T11:23:48.115Z,6.75
2023-04-27T11:26:26.336Z,7.90
2023-04-27T11:28:59.069Z,7.68
2023-04-27T11:31:27.345Z,7.57
2023-04-27T11:33:57.880Z,6.57
2023-04-27T11:36:26.965Z,9.07
2023-04-27T11:38:58.102Z,6.47
2023-04-27T11:41:36.184Z,5.55
2023-04-27T11:44:10.963Z,5.95
2023-04-27T11:46:39.529Z,10.35
2023-04-27T11:49:08.172Z,5.70
2023-04-27T11:51:35.862Z,11.02
2023-04-27T11:54:08.806Z,5.75
2023-04-27T11:56:42.994Z,6.40
2023-04-27T11:59:20.991Z,4.18
2023-04-27T12:01:47.744Z,9.23
2023-04-27T12:04:14.720Z,6.15
2023-04-27T12:06:41.717Z,8.77
2023-04-27T12:09:08.417Z,11.48
2023-04-27T12:11:35.081Z,3.70
2023-04-27T12:14:02.618Z,6.10
2023-04-27T12:16:29.665Z,9.40
2023-04-27T12:18:56.595Z,4.03
2023-04-27T12:21:23.347Z,10.05
2023-04-27T12:23:50.036Z,4.25
2023-04-27T12:26:17.973Z,9.98
2023-04-27T12:28:44.646Z,8.70
2023-04-27T12:31:15.811Z,8.63
2023-04-27T12:33:44.158Z,4.22
2023-04-27T12:36:11.283Z,8.20
2023-04-27T12:38:38.247Z,9.93
2023-04-27T12:41:04.977Z,6.40
2023-04-27T12:43:31.636Z,4.60
2023-04-27T12:45:58.419Z,6.45
2023-04-27T12:48:25.232Z,8.00
2023-04-27T12:50:52.004Z,7.38
2023-04-27T12:53:19.978Z,5.43
2023-04-27T12:55:47.885Z,7.57
2023-04-27T12:58:15.468Z,8.70
2023-04-27T13:00:42.340Z,5.88
2023-04-27T13:03:09.175Z,7.68
2023-04-27T13:05:36.339Z,7.43
2023-04-27T13:08:03.092Z,4.88
2023-04-27T13:10:29.821Z,7.40
2023-04-27T13:12:56.492Z,6.65
2023-04-27T13:15:23.420Z,8.68
2023-04-27T13:17:50.176Z,6.00
2023-04-27T13:20:19.196Z,8.35
2023-04-27T13:22:45.914Z,6.53
2023-04-27T13:25:12.656Z,5.82
2023-04-27T13:27:39.629Z,6.40
2023-04-27T13:30:07.188Z,5.53
2023-04-27T13:32:34.369Z,2.72
2023-04-27T13:35:02.166Z,6.22
2023-04-27T13:37:28.955Z,5.47
2023-04-27T13:39:55.600Z,4.07
2023-04-27T13:42:22.294Z,6.68
2023-04-27T13:44:49.039Z,4.18
2023-04-27T13:47:16.736Z,4.43
2023-04-27T13:49:44.600Z,4.47
2023-04-27T13:52:11.462Z,3.05
2023-04-27T13:54:39.365Z,6.22
2023-04-27T13:57:06.073Z,5.22
2023-04-27T13:59:33.877Z,4.85
2023-04-27T14:02:01.510Z,4.28
2023-04-27T14:04:32.176Z,4.45
2023-04-27T14:07:01.410Z,4.22
2023-04-27T14:09:28.325Z,4.10
2023-04-27T14:11:57.288Z,4.90
2023-04-27T14:14:24.602Z,4.55
2023-04-27T14:16:52.071Z,5.63
2023-04-27T14:19:19.200Z,4.13
2023-04-27T14:21:46.551Z,5.32
2023-04-27T14:24:13.511Z,7.43
2023-04-27T14:26:40.155Z,3.17
2023-04-27T14:29:06.855Z,5.35
2023-04-27T14:31:33.609Z,3.83
2023-04-27T14:34:00.650Z,6.40
2023-04-27T14:36:27.374Z,5.82
2023-04-27T14:38:55.750Z,6.82
2023-04-27T14:41:22.652Z,5.88
2023-04-27T14:43:49.451Z,5.47
2023-04-27T14:46:21.204Z,6.13
2023-04-27T14:48:48.686Z,7.13
2023-04-27T14:51:16.313Z,5.95
2023-04-27T14:53:44.339Z,5.03
2023-04-27T14:56:11.792Z,5.85
2023-04-27T14:58:39.527Z,5.45
2023-04-27T15:01:07.921Z,5.70
2023-04-27T15:03:34.889Z,5.03
2023-04-27T15:06:05.581Z,2.92
2023-04-27T15:08:36.361Z,6.53
2023-04-27T15:11:05.121Z,4.80
2023-04-27T15:13:32.012Z,4.00
2023-04-27T15:15:59.843Z,4.05
2023-04-27T15:18:26.793Z,4.32
2023-04-27T15:20:58.278Z,3.67
2023-04-27T15:23:26.107Z,8.07
2023-04-27T15:25:57.342Z,4.28
2023-04-27T15:28:24.578Z,5.20
2023-04-27T15:30:51.730Z,4.72
2023-04-27T15:33:20.582Z,6.13
2023-04-27T15:35:47.484Z,6.63
2023-04-27T15:38:15.698Z,7.05
2023-04-27T15:40:42.464Z,7.00
2023-04-27T15:43:10.292Z,7.63
2023-04-27T15:45:38.505Z,6.88
2023-04-27T15:48:05.318Z,9.68
2023-04-27T15:50:32.051Z,6.03
2023-04-27T15:52:58.782Z,4.43
2023-04-27T15:55:25.546Z,7.45
2023-04-27T15:57:53.022Z,9.65
2023-04-27T16:00:20.314Z,12.45
2023-04-27T16:02:47.105Z,4.35
2023-04-27T16:05:14.828Z,4.57
2023-04-27T16:07:43.715Z,8.65
2023-04-27T16:10:11.010Z,4.85
2023-04-27T16:12:38.106Z,6.93
2023-04-27T16:15:05.202Z,5.47
2023-04-27T16:17:34.664Z,3.45
2023-04-27T16:20:01.923Z,3.70
2023-04-27T16:22:28.662Z,3.92
2023-04-27T16:24:55.402Z,7.55
2023-04-27T16:27:22.258Z,6.50
2023-04-27T16:29:51.523Z,7.30
2023-04-27T16:32:18.366Z,6.20
2023-04-27T16:34:46.742Z,6.53
2023-04-27T16:37:13.474Z,6.18
2023-04-27T16:39:40.251Z,6.82
2023-04-27T16:42:07.026Z,4.70
2023-04-27T16:44:33.728Z,5.25
2023-04-27T16:47:00.390Z,4.63
2023-04-27T16:49:27.201Z,5.13
2023-04-27T16:51:54.025Z,5.93
2023-04-27T16:54:20.861Z,5.07
2023-04-27T16:56:50.292Z,13.73
2023-04-27T16:59:17.203Z,5.25
2023-04-27T17:01:44.334Z,4.50
2023-04-27T17:04:12.122Z,5.07
2023-04-27T17:06:40.127Z,7.88
2023-04-27T17:09:07.035Z,7.97
2023-04-27T17:11:44.929Z,10.43
2023-04-27T17:14:12.027Z,5.65
2023-04-27T17:16:39.978Z,5.53
2023-04-27T17:19:06.689Z,5.07
2023-04-27T17:21:33.403Z,5.25
2023-04-27T17:24:00.103Z,6.38
2023-04-27T17:26:26.857Z,6.43
2023-04-27T17:28:53.542Z,5.43
2023-04-27T17:31:20.235Z,6.28
2023-04-27T17:33:49.343Z,8.80
2023-04-27T17:36:16.038Z,9.00
2023-04-27T17:38:44.302Z,7.72
2023-04-27T17:41:11.184Z,6.68
2023-04-27T17:43:39.209Z,4.20
2023-04-27T17:46:24.694Z,4.95
2023-04-27T17:48:51.595Z,6.38
2023-04-27T17:51:18.342Z,4.57
2023-04-27T17:53:47.576Z,6.82
2023-04-27T17:56:15.719Z,6.07
2023-04-27T17:58:42.378Z,4.43
2023-04-27T18:01:09.091Z,4.15
2023-04-27T18:03:36.093Z,9.43
2023-04-27T18:06:02.831Z,6.72
2023-04-27T18:08:29.685Z,11.88
2023-04-27T18:10:56.445Z,6.68
2023-04-27T18:13:23.120Z,6.07
2023-04-27T18:15:49.819Z,7.63
2023-04-27T18:18:17.875Z,10.50
2023-04-27T18:20:44.622Z,6.22
2023-04-27T18:23:11.490Z,6.45
2023-04-27T18:25:39.733Z,6.80
2023-04-27T18:28:07.931Z,8.32
2023-04-27T18:30:35.832Z,4.60
2023-04-27T18:33:06.430Z,5.70
2023-04-27T18:35:34.568Z,5.82
2023-04-27T18:38:01.347Z,9.80
2023-04-27T18:40:28.032Z,6.97
2023-04-27T18:42:54.770Z,6.70
2023-04-27T18:45:21.566Z,9.25
2023-04-27T18:47:48.391Z,9.30
2023-04-27T18:50:15.154Z,6.72
2023-04-27T18:52:42.028Z,6.88
2023-04-27T18:55:09.357Z,7.65
2023-04-27T18:57:36.176Z,8.60
2023-04-27T19:00:04.290Z,7.80
2023-04-27T19:02:31.516Z,8.25
2023-04-27T19:05:11.319Z,9.20
2023-04-27T19:07:40.726Z,12.95
2023-04-27T19:10:08.291Z,6.95
2023-04-27T19:12:35.049Z,4.57
2023-04-27T19:15:02.041Z,7.35
2023-04-27T19:17:28.984Z,5.78
2023-04-27T19:19:55.782Z,10.55
2023-04-27T19:22:22.527Z,12.10
2023-04-27T19:24:49.382Z,8.93
2023-04-27T19:27:17.476Z,9.18
2023-04-27T19:29:55.634Z,12.13
2023-04-27T19:32:23.328Z,15.35
2023-04-27T19:34:51.211Z,12.57
2023-04-27T19:37:19.654Z,10.60
2023-04-27T19:39:46.523Z,12.90
2023-04-27T19:42:14.825Z,13.68
2023-04-27T19:44:41.773Z,15.98
2023-04-27T19:47:09.625Z,18.30
2023-04-27T19:49:37.223Z,17.05
2023-04-27T19:52:05.371Z,17.85
2023-04-27T19:54:32.113Z,18.30
2023-04-27T19:56:59.970Z,19.42
2023-04-27T19:59:29.039Z,21.88
2023-04-27T20:01:55.749Z,19.70
2023-04-27T20:04:23.344Z,17.15
2023-04-27T20:06:50.539Z,18.95
2023-04-27T20:09:17.225Z,18.90
2023-04-27T20:11:43.895Z,21.48
2023-04-27T20:14:10.678Z,17.88
2023-04-27T20:16:37.406Z,27.02
2023-04-27T20:19:04.144Z,20.98
2023-04-27T20:21:30.880Z,17.00
2023-04-27T20:23:57.521Z,16.23
2023-04-27T20:26:25.554Z,19.88
2023-04-27T20:28:54.632Z,22.92
2023-04-27T20:31:22.968Z,22.90
2023-04-27T20:33:54.952Z,20.60
2023-04-27T20:36:22.903Z,27.27
2023-04-27T20:38:50.905Z,23.08
2023-04-27T20:41:19.222Z,23.75
2023-04-27T20:43:45.987Z,23.58
2023-04-27T20:46:12.919Z,25.27
2023-04-27T20:48:39.922Z,24.20
2023-04-27T20:51:06.666Z,24.10
2023-04-27T20:53:33.360Z,25.13
2023-04-27T20:56:00.136Z,29.20
2023-04-27T20:58:26.910Z,23.02
2023-04-27T21:00:54.045Z,23.40
2023-04-27T21:03:20.937Z,25.85
2023-04-27T21:05:49.261Z,27.10
2023-04-27T21:08:16.446Z,25.42
2023-04-27T21:10:44.950Z,38.40
2023-04-27T21:13:11.750Z,26.08
2023-04-27T21:15:39.583Z,23.85
2023-04-27T21:18:07.790Z,25.48
2023-04-27T21:20:37.618Z,28.58
2023-04-27T21:23:05.781Z,26.55
2023-04-27T21:25:34.783Z,24.40
2023-04-27T21:28:05.225Z,26.70
2023-04-27T21:30:31.895Z,25.75
2023-04-27T21:32:58.670Z,25.55
2023-04-27T21:35:25.531Z,27.33
2023-04-27T21:37:52.209Z,26.85
2023-04-27T21:40:19.169Z,26.58
2023-04-27T21:42:45.899Z,22.75
2023-04-27T21:45:12.642Z,28.10
2023-04-27T21:47:39.334Z,24.55
2023-04-27T21:50:06.925Z,24.50
2023-04-27T21:52:33.639Z,22.85
2023-04-27T21:55:00.388Z,24.10
2023-04-27T21:57:27.222Z,20.33
2023-04-27T21:59:53.941Z,19.33
2023-04-27T22:02:20.685Z,23.60
2023-04-27T22:04:48.452Z,22.20
2023-04-27T22:07:16.260Z,25.40
2023-04-27T22:09:43.031Z,16.50
2023-04-27T22:12:19.155Z,24.92
2023-04-27T22:14:48.299Z,25.10
2023-04-27T22:17:15.029Z,23.80
2023-04-27T22:19:50.837Z,21.17
2023-04-27T22:24:49.150Z,19.90
2023-04-27T22:27:30.007Z,18.08
2023-04-27T22:30:04.046Z,22.67
2023-04-27T22:32:31.580Z,18.48
2023-04-27T22:35:02.079Z,24.08
2023-04-27T22:37:30.672Z,22.05
2023-04-27T22:39:58.294Z,22.85
2023-04-27T22:42:27.104Z,20.30
2023-04-27T22:44:53.983Z,18.25
2023-04-27T22:47:24.693Z,20.20
2023-04-27T22:49:55.008Z,19.85
2023-04-27T22:52:25.245Z,18.52
2023-04-27T22:54:51.934Z,22.83
2023-04-27T22:57:18.647Z,21.85
2023-04-27T22:59:45.358Z,16.98
2023-04-27T23:02:12.095Z,18.77
2023-04-27T23:04:38.762Z,17.95
2023-04-27T23:07:05.498Z,14.93
2023-04-27T23:09:32.192Z,16.67
2023-04-27T23:11:58.904Z,19.05
2023-04-27T23:14:25.569Z,23.77
2023-04-27T23:16:52.269Z,18.00
2023-04-27T23:19:18.951Z,14.07
2023-04-27T23:21:46.656Z,16.48
2023-04-27T23:24:15.054Z,15.30
2023-04-27T23:26:43.234Z,20.95
2023-04-27T23:29:13.248Z,13.88
2023-04-27T23:31:40.506Z,16.17
2023-04-27T23:34:10.995Z,20.38
2023-04-27T23:36:39.697Z,18.83
2023-04-27T23:39:06.389Z,18.75
2023-04-27T23:41:33.103Z,21.30
2023-04-27T23:43:59.841Z,15.55
2023-04-27T23:46:26.705Z,16.13
2023-04-27T23:48:53.494Z,11.32
2023-04-27T23:51:20.390Z,15.50
2023-04-27T23:53:47.172Z,17.48
2023-04-27T23:56:18.132Z,16.95
2023-04-27T23:58:45.240Z,16.48
